»·PEaware :: UAL8 KSFO-YBBN

UAL8 :: KSFO-YBBN

FLIGHT INFORMATION

Flight Status: Arrived
Operator:
United Airlines
More flights by this operator :: More flights under this callsign
Pilot: Scott L. (17677)
Aircraft: Unknown
(A359)
More flights by this aircraft type
Origin: KSFO San Francisco Intl
United States
Destination: YBBN Brisbane Intl
Australia
More flights between these airports :: More routes between these airports
Route: GNNRR2 BAART R464 BEKME/N0498F340 R464 MAGGI BINJO CHOKO B326 NIXAM/N0500F360 B326 HN A598 DASSA/N0492F380 A598 SETER/N0494F390 UH224 TEBOT
File this flight plan on PilotEdge
Remarks: RMK / SIMBRIEF
Altitude:
(Current/Filed)
32,000ft
Speed:
(Current/Filed)
500kts
Departed: 30-Oct-20 08:18 PM
Arrived: 31-Oct-20 09:57 AM
Distance/Time
Traveled:
6139nm/13:39
Distance/Time
To Go:
Arrived

Flight Plot

Page will automatically refresh every two minutes.

Flight plan parsing failed; only flown route is shown


Map Options




Map Legend


Flown Route
Filed Route
Departure Airport
Arrival Airport
Navaid (VOR, NDB)
Fix

Horizontal Profiles

Position Reports

Time Latitude Longitude Heading Altitude Ground
Speed
30-Oct-20 20:00 37.618687 -122.391728 206 24ft 0kts
30-Oct-20 20:00 37.618687 -122.391728 206 24ft 0kts
30-Oct-20 20:02 37.618687 -122.391728 206 24ft 0kts
30-Oct-20 20:02 37.618687 -122.391728 206 24ft 0kts
30-Oct-20 20:04 37.618687 -122.391728 206 24ft 0kts
30-Oct-20 20:04 37.618687 -122.391728 206 24ft 0kts
30-Oct-20 20:06 37.618688 -122.391727 206 24ft 0kts
30-Oct-20 20:06 37.618972 -122.391553 213 24ft 2kts
30-Oct-20 20:07 37.619126 -122.390883 295 24ft 1kts
30-Oct-20 20:08 37.619104 -122.390828 298 24ft 0kts
30-Oct-20 20:09 37.619386 -122.391477 299 24ft 9kts
30-Oct-20 20:10 37.619663 -122.392047 312 24ft 6kts
30-Oct-20 20:11 37.622186 -122.390991 49 24ft 10kts
30-Oct-20 20:12 37.621817 -122.387169 118 24ft 17kts
30-Oct-20 20:13 37.618397 -122.379093 114 24ft 28kts
30-Oct-20 20:14 37.615066 -122.370073 118 24ft 28kts
30-Oct-20 20:15 37.611494 -122.362637 117 24ft 23kts
30-Oct-20 20:16 37.612395 -122.358205 28 24ft 16kts
30-Oct-20 20:17 37.619380 -122.371093 298 25ft 144kts
30-Oct-20 20:18 37.643242 -122.428494 299 2616ft 204kts
30-Oct-20 20:19 37.671770 -122.506951 271 4014ft 263kts
30-Oct-20 20:20 37.651125 -122.596377 253 6933ft 274kts
30-Oct-20 20:21 37.627395 -122.689399 253 9588ft 283kts
30-Oct-20 20:22 37.602103 -122.789307 253 11211ft 325kts
30-Oct-20 20:23 37.572064 -122.907238 253 12303ft 380kts
30-Oct-20 20:24 37.538718 -123.037380 253 14433ft 396kts
30-Oct-20 20:25 37.504335 -123.171056 253 16535ft 409kts
30-Oct-20 20:26 37.468696 -123.308925 253 18511ft 420kts
30-Oct-20 20:27 37.431871 -123.450615 253 20403ft 431kts
30-Oct-20 20:28 37.393887 -123.595981 253 22199ft 443kts
30-Oct-20 20:29 37.354836 -123.744852 253 23897ft 454kts
30-Oct-20 20:30 37.314745 -123.896675 253 25479ft 464kts
30-Oct-20 20:31 37.273398 -124.052175 253 26944ft 474kts
30-Oct-20 20:32 37.236327 -124.190783 253 28141ft 482kts
30-Oct-20 20:33 37.193400 -124.350318 253 29883ft 480kts
30-Oct-20 20:34 37.150728 -124.508019 254 31554ft 476kts
30-Oct-20 20:35 37.108206 -124.664283 253 32138ft 474kts
30-Oct-20 20:36 37.065497 -124.820681 253 32139ft 475kts
30-Oct-20 20:37 37.022368 -124.977342 253 32139ft 477kts
30-Oct-20 20:38 36.978567 -125.135373 252 32139ft 477kts
30-Oct-20 20:39 36.934849 -125.292114 252 32139ft 476kts
30-Oct-20 20:40 36.890886 -125.448646 252 32139ft 476kts
30-Oct-20 20:41 36.846186 -125.605406 252 32139ft 476kts
30-Oct-20 20:42 36.801927 -125.761487 252 32139ft 476kts
30-Oct-20 20:43 36.757464 -125.917472 252 32139ft 477kts
30-Oct-20 20:44 36.712591 -126.073790 252 32139ft 476kts
30-Oct-20 20:45 36.667680 -126.229373 252 32139ft 476kts
30-Oct-20 20:46 36.622575 -126.384774 252 32139ft 477kts
30-Oct-20 20:47 36.577157 -126.540412 252 32139ft 477kts
30-Oct-20 20:48 36.531548 -126.695943 251 32139ft 477kts
30-Oct-20 20:49 36.485490 -126.852261 251 32139ft 477kts
30-Oct-20 20:50 36.439983 -127.007114 252 32139ft 477kts
30-Oct-20 20:51 36.394661 -127.163506 251 32133ft 478kts
30-Oct-20 20:52 36.349147 -127.319233 251 32131ft 479kts
30-Oct-20 20:53 36.303203 -127.475479 251 32137ft 478kts
30-Oct-20 20:54 36.257125 -127.631358 251 32132ft 479kts
30-Oct-20 20:55 36.211059 -127.786743 251 32126ft 479kts
30-Oct-20 20:56 36.130835 -128.054800 251 32119ft 480kts
30-Oct-20 20:57 36.037365 -128.363752 251 32121ft 479kts
30-Oct-20 20:58 35.942731 -128.673191 250 32116ft 480kts
30-Oct-20 20:59 35.847044 -128.981711 250 32114ft 480kts
30-Oct-20 21:00 35.750687 -129.289544 249 32113ft 481kts
30-Oct-20 21:01 35.653899 -129.596011 249 32114ft 481kts
30-Oct-20 21:02 35.556456 -129.902028 249 32114ft 481kts
30-Oct-20 21:03 35.457732 -130.208253 249 32121ft 481kts
30-Oct-20 21:04 35.358370 -130.513295 249 32161ft 480kts
30-Oct-20 21:05 35.258732 -130.816617 248 32208ft 478kts
30-Oct-20 21:06 35.158064 -131.119411 249 32228ft 486kts
30-Oct-20 21:07 35.055202 -131.426111 249 32233ft 486kts
30-Oct-20 21:08 34.952022 -131.730706 249 32233ft 485kts
30-Oct-20 21:09 34.847867 -132.033923 248 32233ft 484kts
30-Oct-20 21:10 34.742960 -132.336760 248 32233ft 484kts
30-Oct-20 21:11 34.637768 -132.638140 248 32233ft 484kts
30-Oct-20 21:12 34.531657 -132.939826 248 32233ft 484kts
30-Oct-20 21:13 34.424757 -133.239586 250 32233ft 484kts
30-Oct-20 21:14 34.317615 -133.538627 250 32233ft 484kts
30-Oct-20 21:15 34.209500 -133.837293 249 32233ft 484kts
30-Oct-20 21:16 34.100698 -134.134598 249 32233ft 484kts
30-Oct-20 21:17 33.990809 -134.432234 249 32233ft 484kts
30-Oct-20 21:18 33.880729 -134.728287 249 32232ft 484kts
30-Oct-20 21:19 33.769655 -135.022930 248 32236ft 477kts
30-Oct-20 21:20 33.660779 -135.310380 248 32233ft 471kts
30-Oct-20 21:21 33.551337 -135.596745 248 32233ft 471kts
30-Oct-20 21:22 33.441450 -135.882483 247 32233ft 471kts
30-Oct-20 21:23 33.330843 -136.167064 247 32233ft 472kts
30-Oct-20 21:24 33.219237 -136.451831 247 32233ft 471kts
30-Oct-20 21:25 33.107488 -136.734798 247 32233ft 471kts
30-Oct-20 21:26 32.996968 -137.013215 245 32240ft 456kts
30-Oct-20 21:27 32.888361 -137.282777 245 32233ft 456kts
30-Oct-20 21:28 32.776726 -137.556989 245 32233ft 456kts
30-Oct-20 21:29 32.666074 -137.828792 245 32233ft 456kts
30-Oct-20 21:30 32.555164 -138.098631 245 32233ft 455kts
30-Oct-20 21:31 32.445900 -138.362350 245 32233ft 455kts
30-Oct-20 21:32 32.333539 -138.631528 245 32233ft 455kts
30-Oct-20 21:33 32.220653 -138.900569 244 32233ft 456kts
30-Oct-20 21:34 32.106895 -139.169318 243 32231ft 459kts
30-Oct-20 21:35 31.991533 -139.439263 243 32232ft 461kts
30-Oct-20 21:36 31.875986 -139.707710 243 32234ft 460kts
30-Oct-20 21:37 31.759184 -139.976556 243 32233ft 460kts
30-Oct-20 21:38 31.642013 -140.245047 243 32233ft 461kts
30-Oct-20 21:39 31.524092 -140.513220 243 32214ft 462kts
30-Oct-20 21:40 31.405303 -140.781890 242 32033ft 464kts
30-Oct-20 21:41 31.284700 -141.052196 242 31967ft 468kts
30-Oct-20 21:42 31.165564 -141.317240 243 31966ft 456kts
30-Oct-20 21:43 31.046279 -141.580804 243 31965ft 456kts
30-Oct-20 21:44 30.927650 -141.841486 242 31969ft 454kts
30-Oct-20 21:45 30.805345 -142.106319 241 31965ft 466kts
30-Oct-20 21:46 30.681882 -142.373035 242 31965ft 466kts
30-Oct-20 21:47 30.557793 -142.639425 242 31965ft 466kts
30-Oct-20 21:49 30.433682 -142.904819 241 31964ft 469kts
30-Oct-20 21:50 30.310557 -143.165472 240 31965ft 456kts
30-Oct-20 21:51 30.188107 -143.422950 240 31965ft 456kts
30-Oct-20 21:52 30.064796 -143.680675 240 31966ft 456kts
30-Oct-20 21:53 29.941289 -143.937658 240 31965ft 456kts
30-Oct-20 21:54 29.816927 -144.192969 240 31965ft 456kts
30-Oct-20 21:55 29.692687 -144.447356 240 31965ft 456kts
30-Oct-20 21:56 29.567453 -144.702531 239 31966ft 456kts
30-Oct-20 21:57 29.442084 -144.956703 239 31965ft 456kts
30-Oct-20 21:58 29.317209 -145.208331 237 31964ft 452kts
30-Oct-20 21:59 29.189575 -145.462733 237 31965ft 463kts
30-Oct-20 22:00 29.060842 -145.718386 237 31963ft 461kts
30-Oct-20 22:01 28.934138 -145.968877 238 31964ft 453kts
30-Oct-20 22:02 28.806487 -146.218270 238 31965ft 453kts
30-Oct-20 22:03 28.679681 -146.465407 238 31965ft 453kts
30-Oct-20 22:04 28.552394 -146.712257 238 31966ft 453kts
30-Oct-20 22:04 28.443932 -146.921856 237 31966ft 452kts
30-Oct-20 22:06 28.294001 -147.209355 234 31965ft 458kts
30-Oct-20 22:07 28.161969 -147.460282 234 31965ft 461kts
30-Oct-20 22:07 28.052481 -147.667617 234 31967ft 458kts
30-Oct-20 22:09 27.898176 -147.958254 234 31966ft 461kts
30-Oct-20 22:09 27.787245 -148.165170 234 31965ft 461kts
30-Oct-20 22:10 27.654361 -148.411827 236 31976ft 449kts
30-Oct-20 22:11 27.523687 -148.654314 236 31990ft 450kts
30-Oct-20 22:12 27.392889 -148.895605 236 31991ft 451kts
30-Oct-20 22:13 27.260608 -149.137649 237 31991ft 454kts
30-Oct-20 22:14 27.127570 -149.379901 237 31991ft 454kts
30-Oct-20 22:15 26.993381 -149.622727 237 31993ft 451kts
30-Oct-20 22:16 26.861756 -149.859806 237 31994ft 440kts
30-Oct-20 22:17 26.731266 -150.092832 237 31992ft 440kts
30-Oct-20 22:18 26.600536 -150.325708 237 31991ft 440kts
30-Oct-20 22:19 26.469129 -150.558603 237 31978ft 441kts
30-Oct-20 22:20 26.338056 -150.790208 237 31971ft 441kts
30-Oct-20 22:21 26.206343 -151.021344 237 31965ft 441kts
30-Oct-20 22:22 26.073687 -151.252712 238 31965ft 445kts
30-Oct-20 22:23 25.939983 -151.485107 238 31965ft 445kts
30-Oct-20 22:24 25.805176 -151.717172 238 31966ft 445kts
30-Oct-20 22:25 25.670402 -151.949126 238 31965ft 446kts
30-Oct-20 22:26 25.535831 -152.179368 238 31965ft 446kts
30-Oct-20 22:27 25.405278 -152.401569 237 31907ft 446kts
30-Oct-20 22:28 25.394808 -152.418794 237 31668ft 447kts
30-Oct-20 22:29 25.394808 -152.418794 237 31668ft 447kts
30-Oct-20 22:30 25.394808 -152.418794 237 31668ft 447kts
30-Oct-20 22:31 25.350868 -152.499187 242 30724ft 466kts
30-Oct-20 22:32 25.292169 -152.625802 243 29861ft 472kts
30-Oct-20 22:33 25.233231 -152.751341 242 31891ft 445kts
30-Oct-20 22:34 25.173813 -152.869919 237 33700ft 434kts
30-Oct-20 22:35 25.104160 -152.980457 237 33963ft 444kts
30-Oct-20 22:36 25.032680 -153.093942 238 33963ft 454kts
30-Oct-20 22:37 24.960062 -153.209196 237 33965ft 458kts
30-Oct-20 22:38 24.887034 -153.324639 237 33966ft 459kts
30-Oct-20 22:39 24.813573 -153.439803 237 33966ft 459kts
30-Oct-20 22:40 24.740427 -153.554828 237 33966ft 459kts
30-Oct-20 22:41 24.667172 -153.669930 237 33967ft 459kts
30-Oct-20 22:42 24.594071 -153.784953 237 33965ft 459kts
30-Oct-20 22:43 24.520631 -153.899840 237 33965ft 459kts
30-Oct-20 22:44 24.447191 -154.014390 237 33965ft 459kts
30-Oct-20 22:45 24.373699 -154.128708 237 33965ft 459kts
30-Oct-20 22:46 24.300204 -154.242703 237 33965ft 459kts
30-Oct-20 22:47 24.228393 -154.358638 238 33965ft 459kts
30-Oct-20 22:48 24.156976 -154.474286 238 33965ft 459kts
30-Oct-20 22:49 24.085641 -154.589277 238 33965ft 459kts
30-Oct-20 22:50 24.013909 -154.704807 238 33966ft 459kts
30-Oct-20 22:51 23.942192 -154.820115 238 33965ft 459kts
30-Oct-20 22:52 23.869627 -154.935918 237 33964ft 465kts
30-Oct-20 22:53 23.796225 -155.052535 238 33965ft 469kts
30-Oct-20 22:54 23.722234 -155.170303 238 33965ft 470kts
30-Oct-20 22:55 23.648348 -155.287658 238 33965ft 469kts
30-Oct-20 22:56 23.573275 -155.403943 234 33965ft 471kts
30-Oct-20 22:57 23.481442 -155.506827 223 33965ft 476kts
30-Oct-20 22:58 23.373506 -155.589920 217 33965ft 478kts
30-Oct-20 22:59 23.262488 -155.670021 217 33966ft 478kts
30-Oct-20 23:00 23.152095 -155.749886 217 33965ft 478kts
30-Oct-20 23:01 23.041300 -155.829516 217 33967ft 479kts
30-Oct-20 23:02 22.930517 -155.908934 217 33971ft 475kts
30-Oct-20 23:03 22.820777 -155.987142 216 33967ft 471kts
30-Oct-20 23:04 22.711516 -156.065005 217 33967ft 471kts
30-Oct-20 23:05 22.602105 -156.142948 217 33972ft 471kts
30-Oct-20 23:06 22.492506 -156.220846 217 33978ft 471kts
30-Oct-20 23:07 22.383687 -156.299115 219 33982ft 470kts
30-Oct-20 23:08 22.285797 -156.391706 229 33981ft 465kts
30-Oct-20 23:09 22.202417 -156.497294 232 33981ft 464kts
30-Oct-20 23:10 22.119923 -156.604355 232 33983ft 464kts
30-Oct-20 23:11 22.037769 -156.711015 232 33998ft 464kts
30-Oct-20 23:12 21.955126 -156.817876 232 34010ft 464kts
30-Oct-20 23:13 21.875206 -156.926607 237 34012ft 462kts
30-Oct-20 23:14 21.812477 -157.046768 247 34010ft 462kts
30-Oct-20 23:15 21.765006 -157.175512 250 34007ft 465kts
30-Oct-20 23:16 21.718206 -157.305375 250 34004ft 466kts
30-Oct-20 23:17 21.671261 -157.435311 250 33982ft 466kts
30-Oct-20 23:18 21.624033 -157.565657 250 33967ft 467kts
30-Oct-20 23:19 21.576835 -157.695693 250 33966ft 467kts
30-Oct-20 23:20 21.529774 -157.825235 249 33973ft 467kts
30-Oct-20 23:21 21.482388 -157.954997 249 33987ft 467kts
30-Oct-20 23:22 21.434702 -158.085159 249 33992ft 467kts
30-Oct-20 23:23 21.387166 -158.214554 249 33994ft 466kts
30-Oct-20 23:24 21.339623 -158.343602 249 33999ft 467kts
30-Oct-20 23:25 21.291840 -158.472951 249 34001ft 466kts
30-Oct-20 23:26 21.243987 -158.602134 249 34001ft 466kts
30-Oct-20 23:27 21.196107 -158.731364 249 34001ft 467kts
30-Oct-20 23:28 21.148160 -158.860352 249 34001ft 467kts
30-Oct-20 23:29 21.099798 -158.989812 250 33998ft 472kts
30-Oct-20 23:30 21.050574 -159.121305 250 33990ft 477kts
30-Oct-20 23:31 21.001133 -159.253040 250 33985ft 476kts
30-Oct-20 23:32 20.951956 -159.383670 250 33985ft 474kts
30-Oct-20 23:33 20.902606 -159.514384 250 33985ft 474kts
30-Oct-20 23:34 20.852666 -159.645005 250 33985ft 474kts
30-Oct-20 23:35 20.803666 -159.774192 249 33985ft 474kts
30-Oct-20 23:36 20.753515 -159.906088 249 33985ft 474kts
30-Oct-20 23:37 20.703735 -160.036576 249 33985ft 474kts
30-Oct-20 23:38 20.653928 -160.166778 249 33985ft 474kts
30-Oct-20 23:39 20.604168 -160.296500 249 33985ft 474kts
30-Oct-20 23:40 20.554143 -160.426564 249 33985ft 474kts
30-Oct-20 23:41 20.504012 -160.556538 249 33985ft 474kts
30-Oct-20 23:42 20.453646 -160.686834 249 33986ft 474kts
30-Oct-20 23:43 20.403221 -160.816929 248 33982ft 474kts
30-Oct-20 23:44 20.340875 -160.941163 239 33985ft 480kts
30-Oct-20 23:45 20.266100 -161.059253 239 33985ft 481kts
30-Oct-20 23:46 20.191246 -161.177005 239 33985ft 481kts
30-Oct-20 23:47 20.116250 -161.294757 239 33985ft 481kts
30-Oct-20 23:48 20.040934 -161.412776 239 33985ft 481kts
30-Oct-20 23:49 19.965872 -161.530161 239 33985ft 481kts
30-Oct-20 23:51 19.890537 -161.647686 239 33984ft 482kts
30-Oct-20 23:52 19.814791 -161.765283 238 33985ft 482kts
30-Oct-20 23:53 19.739241 -161.882685 238 33985ft 482kts
30-Oct-20 23:54 19.663742 -161.999801 238 33985ft 481kts
30-Oct-20 23:55 19.588382 -162.116472 238 33985ft 481kts
30-Oct-20 23:56 19.512742 -162.233296 238 33985ft 481kts
30-Oct-20 23:57 19.437017 -162.349942 238 33985ft 481kts
30-Oct-20 23:58 19.361077 -162.467033 238 33985ft 481kts
30-Oct-20 23:59 19.285268 -162.583552 238 33985ft 481kts
31-Oct-20 00:00 19.209416 -162.699989 238 33985ft 481kts
31-Oct-20 00:01 19.133517 -162.816402 238 33985ft 481kts
31-Oct-20 00:02 19.060388 -162.928082 238 33985ft 481kts
31-Oct-20 00:03 18.984148 -163.044224 238 33985ft 480kts
31-Oct-20 00:04 18.908237 -163.159672 238 33985ft 477kts
31-Oct-20 00:04 18.845174 -163.254807 238 33985ft 475kts
31-Oct-20 00:06 18.756715 -163.388450 238 33985ft 475kts
31-Oct-20 00:07 18.681208 -163.502617 238 33985ft 475kts
31-Oct-20 00:08 18.605906 -163.616290 238 33985ft 475kts
31-Oct-20 00:09 18.530057 -163.730955 238 33985ft 475kts
31-Oct-20 00:09 18.467155 -163.825804 238 33985ft 476kts
31-Oct-20 00:11 18.378647 -163.958784 238 33985ft 475kts
31-Oct-20 00:11 18.315307 -164.053751 238 33985ft 476kts
31-Oct-20 00:12 18.239164 -164.167715 238 33992ft 476kts
31-Oct-20 00:14 18.150616 -164.299963 238 34000ft 476kts
31-Oct-20 00:14 18.087249 -164.394466 238 34001ft 476kts
31-Oct-20 00:15 18.011026 -164.507953 238 34000ft 475kts
31-Oct-20 00:16 17.934876 -164.621147 238 34001ft 476kts
31-Oct-20 00:17 17.858449 -164.734465 237 34001ft 476kts
31-Oct-20 00:18 17.781813 -164.847681 238 34001ft 476kts
31-Oct-20 00:19 17.705375 -164.960691 237 34001ft 475kts
31-Oct-20 00:20 17.629168 -165.073189 237 34001ft 474kts
31-Oct-20 00:21 17.552526 -165.186130 237 34001ft 474kts
31-Oct-20 00:22 17.476100 -165.298556 237 34001ft 474kts
31-Oct-20 00:23 17.399761 -165.410686 237 34001ft 474kts
31-Oct-20 00:24 17.323081 -165.523127 237 34001ft 474kts
31-Oct-20 00:25 17.246403 -165.635391 237 34001ft 474kts
31-Oct-20 00:26 17.170146 -165.747262 237 34001ft 474kts
31-Oct-20 00:27 17.093399 -165.859413 237 34000ft 474kts
31-Oct-20 00:28 17.016494 -165.971450 237 34000ft 476kts
31-Oct-20 00:29 16.939090 -166.084045 237 34001ft 477kts
31-Oct-20 00:30 16.861399 -166.196490 237 34001ft 477kts
31-Oct-20 00:31 16.783832 -166.308414 237 34001ft 477kts
31-Oct-20 00:32 16.706060 -166.420901 237 34001ft 477kts
31-Oct-20 00:33 16.628575 -166.532864 237 34001ft 477kts
31-Oct-20 00:34 16.550814 -166.645066 237 34001ft 477kts
31-Oct-20 00:35 16.473196 -166.757343 237 34001ft 478kts
31-Oct-20 00:36 16.395336 -166.869487 237 34001ft 478kts
31-Oct-20 00:37 16.317429 -166.981393 237 34001ft 478kts
31-Oct-20 00:38 16.239285 -167.093444 237 34001ft 478kts
31-Oct-20 00:39 16.161344 -167.205018 237 34001ft 478kts
31-Oct-20 00:40 16.083191 -167.316738 237 34001ft 478kts
31-Oct-20 00:41 16.005081 -167.428229 237 34001ft 478kts
31-Oct-20 00:42 15.926871 -167.539691 237 34001ft 478kts
31-Oct-20 00:43 15.848155 -167.651143 237 34001ft 478kts
31-Oct-20 00:44 15.769885 -167.762415 237 34001ft 478kts
31-Oct-20 00:45 15.691314 -167.873958 237 34001ft 478kts
31-Oct-20 00:46 15.612795 -167.985203 237 34001ft 478kts
31-Oct-20 00:47 15.534277 -168.096270 237 34001ft 478kts
31-Oct-20 00:48 15.455608 -168.207380 237 34001ft 478kts
31-Oct-20 00:49 15.377065 -168.318157 237 34001ft 478kts
31-Oct-20 00:50 15.298064 -168.429416 237 34001ft 478kts
31-Oct-20 00:51 15.219349 -168.540114 237 34001ft 478kts
31-Oct-20 00:52 15.140413 -168.650958 237 34001ft 478kts
31-Oct-20 00:53 15.061721 -168.761755 237 34001ft 478kts
31-Oct-20 00:54 14.982803 -168.872420 236 34000ft 479kts
31-Oct-20 00:55 14.903439 -168.983430 236 34000ft 481kts
31-Oct-20 00:56 14.824745 -169.092561 236 34001ft 470kts
31-Oct-20 00:57 14.746700 -169.201164 235 34000ft 472kts
31-Oct-20 00:58 14.668258 -169.310328 235 34001ft 473kts
31-Oct-20 00:59 14.590138 -169.418945 235 34001ft 473kts
31-Oct-20 01:00 14.511679 -169.527893 235 34001ft 473kts
31-Oct-20 01:01 14.432988 -169.637023 235 34001ft 473kts
31-Oct-20 01:02 14.354647 -169.745950 235 34001ft 473kts
31-Oct-20 01:03 14.276267 -169.854513 235 34001ft 473kts
31-Oct-20 01:04 14.197588 -169.963218 235 34001ft 473kts
31-Oct-20 01:05 14.118969 -170.071683 235 34001ft 473kts
31-Oct-20 01:06 14.040452 -170.179842 235 34001ft 473kts
31-Oct-20 01:07 13.961504 -170.288463 235 34001ft 473kts
31-Oct-20 01:08 13.882515 -170.396876 235 34000ft 473kts
31-Oct-20 01:09 13.803326 -170.504859 235 34001ft 473kts
31-Oct-20 01:10 13.724436 -170.612850 235 34001ft 473kts
31-Oct-20 01:11 13.645627 -170.721052 235 34001ft 473kts
31-Oct-20 01:12 13.566581 -170.829361 235 34001ft 473kts
31-Oct-20 01:13 13.487682 -170.937084 235 34001ft 471kts
31-Oct-20 01:14 13.408804 -171.044703 235 34000ft 472kts
31-Oct-20 01:15 13.329796 -171.152328 236 34001ft 474kts
31-Oct-20 01:16 13.250366 -171.260396 236 34001ft 474kts
31-Oct-20 01:17 13.170923 -171.368333 236 34001ft 474kts
31-Oct-20 01:18 13.091663 -171.475911 235 34001ft 474kts
31-Oct-20 01:19 13.012365 -171.583448 235 34001ft 474kts
31-Oct-20 01:20 12.933236 -171.690720 234 34001ft 474kts
31-Oct-20 01:21 12.853168 -171.798861 234 34001ft 474kts
31-Oct-20 01:22 12.773260 -171.906414 234 34001ft 474kts
31-Oct-20 01:23 12.693653 -172.013739 234 34001ft 474kts
31-Oct-20 01:24 12.613871 -172.121221 234 34001ft 474kts
31-Oct-20 01:25 12.534061 -172.228625 234 34001ft 474kts
31-Oct-20 01:26 12.454313 -172.335831 234 34001ft 474kts
31-Oct-20 01:27 12.374312 -172.443244 234 34001ft 474kts
31-Oct-20 01:28 12.294470 -172.550321 234 34001ft 474kts
31-Oct-20 01:29 12.214650 -172.657260 234 34002ft 474kts
31-Oct-20 01:30 12.134965 -172.764373 234 34001ft 474kts
31-Oct-20 01:31 12.055629 -172.870546 234 34001ft 475kts
31-Oct-20 01:32 11.974623 -172.978725 234 34001ft 476kts
31-Oct-20 01:33 11.894337 -173.085790 234 34008ft 477kts
31-Oct-20 01:34 11.813253 -173.193090 234 34099ft 476kts
31-Oct-20 01:35 11.732679 -173.300147 234 34143ft 475kts
31-Oct-20 01:36 11.652284 -173.407000 234 34125ft 476kts
31-Oct-20 01:37 11.571721 -173.513981 234 34207ft 475kts
31-Oct-20 01:38 11.491334 -173.620613 234 34287ft 475kts
31-Oct-20 01:39 11.410996 -173.727440 234 34303ft 475kts
31-Oct-20 01:40 11.330761 -173.833871 234 34305ft 475kts
31-Oct-20 01:41 11.250304 -173.940299 234 34305ft 475kts
31-Oct-20 01:42 11.169578 -174.046949 233 34305ft 476kts
31-Oct-20 01:43 11.088870 -174.153449 233 34305ft 476kts
31-Oct-20 01:44 11.007841 -174.260268 233 34305ft 475kts
31-Oct-20 01:45 10.927248 -174.366399 234 34305ft 473kts
31-Oct-20 01:46 10.846715 -174.471859 233 34305ft 472kts
31-Oct-20 01:47 10.766277 -174.577227 233 34305ft 472kts
31-Oct-20 01:48 10.685964 -174.682769 233 34305ft 472kts
31-Oct-20 01:49 10.605986 -174.788110 233 34305ft 472kts
31-Oct-20 01:50 10.525443 -174.893739 233 34305ft 472kts
31-Oct-20 01:52 10.445056 -174.999013 233 34305ft 472kts
31-Oct-20 01:53 10.364429 -175.104502 233 34304ft 473kts
31-Oct-20 01:54 10.283867 -175.209781 233 34305ft 473kts
31-Oct-20 01:55 10.202911 -175.315451 233 34305ft 474kts
31-Oct-20 01:56 10.122167 -175.420763 233 34305ft 474kts
31-Oct-20 01:57 10.041462 -175.525936 233 34305ft 474kts
31-Oct-20 01:58 9.960763 -175.631018 233 34305ft 474kts
31-Oct-20 01:59 9.879793 -175.736630 233 34305ft 474kts
31-Oct-20 02:00 9.798529 -175.841817 233 34305ft 474kts
31-Oct-20 02:01 9.717395 -175.947082 233 34305ft 474kts
31-Oct-20 02:02 9.636438 -176.052088 233 34305ft 474kts
31-Oct-20 02:03 9.555421 -176.157080 233 34305ft 474kts
31-Oct-20 02:04 9.474169 -176.262300 233 34305ft 474kts
31-Oct-20 02:05 9.393335 -176.366898 233 34305ft 474kts
31-Oct-20 02:06 9.312099 -176.471934 233 34305ft 474kts
31-Oct-20 02:07 9.230756 -176.577012 233 34305ft 474kts
31-Oct-20 02:08 9.149622 -176.681859 233 34305ft 474kts
31-Oct-20 02:08 9.082377 -176.768974 233 34305ft 473kts
31-Oct-20 02:10 8.987687 -176.891110 232 34305ft 471kts
31-Oct-20 02:11 8.906970 -176.995061 232 34304ft 473kts
31-Oct-20 02:11 8.838999 -177.081986 232 34304ft 475kts
31-Oct-20 02:13 8.743694 -177.204186 232 34305ft 476kts
31-Oct-20 02:13 8.675097 -177.292273 232 34305ft 476kts
31-Oct-20 02:15 8.579591 -177.414877 232 34311ft 476kts
31-Oct-20 02:15 8.511429 -177.502300 232 34315ft 476kts
31-Oct-20 02:16 8.429387 -177.607452 232 34315ft 476kts
31-Oct-20 02:17 8.347779 -177.712282 232 34315ft 476kts
31-Oct-20 02:18 8.265878 -177.817373 232 34315ft 476kts
31-Oct-20 02:19 8.184011 -177.922099 232 34315ft 476kts
31-Oct-20 02:20 8.101873 -178.027057 232 34315ft 476kts
31-Oct-20 02:21 8.019804 -178.131844 232 34315ft 476kts
31-Oct-20 02:22 7.937779 -178.236501 232 34315ft 476kts
31-Oct-20 02:23 7.855414 -178.341142 231 34315ft 476kts
31-Oct-20 02:24 7.773098 -178.445607 232 34315ft 477kts
31-Oct-20 02:25 7.690874 -178.550236 232 34315ft 477kts
31-Oct-20 02:26 7.608382 -178.655220 232 34315ft 477kts
31-Oct-20 02:27 7.526434 -178.759894 232 34315ft 477kts
31-Oct-20 02:28 7.444298 -178.864372 232 34269ft 476kts
31-Oct-20 02:29 7.361576 -178.969419 232 34143ft 477kts
31-Oct-20 02:30 7.279032 -179.074163 232 34050ft 478kts
31-Oct-20 02:31 7.196338 -179.179024 232 34034ft 478kts
31-Oct-20 02:32 7.113389 -179.284136 232 34032ft 478kts
31-Oct-20 02:33 7.030830 -179.388686 232 34032ft 478kts
31-Oct-20 02:34 6.947957 -179.493604 231 34033ft 477kts
31-Oct-20 02:35 6.865440 -179.598174 231 34033ft 477kts
31-Oct-20 02:36 6.782642 -179.702471 231 34032ft 477kts
31-Oct-20 02:37 6.700002 -179.806798 231 34032ft 477kts
31-Oct-20 02:38 6.617312 -179.911178 231 34032ft 477kts
31-Oct-20 02:39 6.534574 179.984376 230 34030ft 477kts
31-Oct-20 02:40 6.452038 179.880360 230 33989ft 477kts
31-Oct-20 02:41 6.369239 179.776074 230 33979ft 477kts
31-Oct-20 02:42 6.286422 179.671782 230 33978ft 477kts
31-Oct-20 02:43 6.203774 179.567749 230 33978ft 477kts
31-Oct-20 02:44 6.120718 179.463264 230 33978ft 477kts
31-Oct-20 02:45 6.038081 179.359364 230 33978ft 478kts
31-Oct-20 02:46 5.955337 179.254917 230 33978ft 478kts
31-Oct-20 02:47 5.872493 179.150897 230 33978ft 477kts
31-Oct-20 02:48 5.789513 179.047240 230 33978ft 478kts
31-Oct-20 02:49 5.706433 178.943107 230 33977ft 480kts
31-Oct-20 02:50 5.622799 178.838245 230 33977ft 483kts
31-Oct-20 02:51 5.538779 178.732925 230 33978ft 484kts
31-Oct-20 02:52 5.454617 178.627483 230 33978ft 484kts
31-Oct-20 02:53 5.370442 178.522087 230 33978ft 484kts
31-Oct-20 02:54 5.286407 178.416916 230 33978ft 484kts
31-Oct-20 02:55 5.202278 178.311509 231 33978ft 484kts
31-Oct-20 02:56 5.118312 178.206127 230 33978ft 484kts
31-Oct-20 02:57 5.034516 178.101323 230 33978ft 482kts
31-Oct-20 02:58 4.951130 177.997151 230 33978ft 480kts
31-Oct-20 02:59 4.867241 177.892679 230 33978ft 480kts
31-Oct-20 03:00 4.783318 177.788435 230 33978ft 480kts
31-Oct-20 03:01 4.699726 177.684231 230 33978ft 480kts
31-Oct-20 03:02 4.616301 177.580210 230 33978ft 480kts
31-Oct-20 03:03 4.532481 177.475738 230 33978ft 480kts
31-Oct-20 03:04 4.449143 177.371908 230 33978ft 480kts
31-Oct-20 03:05 4.365573 177.267405 230 33978ft 480kts
31-Oct-20 03:06 4.281956 177.163118 230 33978ft 480kts
31-Oct-20 03:07 4.198086 177.058754 230 33977ft 482kts
31-Oct-20 03:08 4.114530 176.954842 230 33977ft 486kts
31-Oct-20 03:09 4.028702 176.848148 230 33978ft 490kts
31-Oct-20 03:10 3.943285 176.741974 230 33978ft 490kts
31-Oct-20 03:11 3.857669 176.635948 230 33978ft 490kts
31-Oct-20 03:12 3.772108 176.530080 230 33978ft 490kts
31-Oct-20 03:13 3.686655 176.424048 230 33978ft 490kts
31-Oct-20 03:14 3.601066 176.317777 230 33978ft 490kts
31-Oct-20 03:15 3.515765 176.211918 230 33978ft 490kts
31-Oct-20 03:16 3.430381 176.105251 230 33978ft 490kts
31-Oct-20 03:17 3.345259 175.999218 230 33978ft 490kts
31-Oct-20 03:18 3.259885 175.893142 230 33978ft 490kts
31-Oct-20 03:19 3.174508 175.787109 230 33978ft 490kts
31-Oct-20 03:20 3.088892 175.680816 230 33978ft 491kts
31-Oct-20 03:21 3.003382 175.574660 230 33978ft 490kts
31-Oct-20 03:22 2.918214 175.468942 230 33978ft 487kts
31-Oct-20 03:23 2.833031 175.363835 229 33977ft 486kts
31-Oct-20 03:24 2.748124 175.258350 229 33976ft 486kts
31-Oct-20 03:25 2.663425 175.153203 229 33977ft 486kts
31-Oct-20 03:26 2.578306 175.047709 230 33978ft 488kts
31-Oct-20 03:27 2.497962 174.948144 230 33978ft 491kts
31-Oct-20 03:28 2.412378 174.842067 230 33977ft 490kts
31-Oct-20 03:29 2.326988 174.736291 230 33977ft 491kts
31-Oct-20 03:30 2.241209 174.630063 230 33977ft 490kts
31-Oct-20 03:31 2.155665 174.524138 230 33976ft 491kts
31-Oct-20 03:32 2.069851 174.417917 230 33975ft 490kts
31-Oct-20 03:33 1.984291 174.311840 230 33977ft 490kts
31-Oct-20 03:34 1.898847 174.205695 230 33977ft 490kts
31-Oct-20 03:35 1.813000 174.100047 230 33977ft 490kts
31-Oct-20 03:36 1.727105 173.993954 230 33977ft 491kts
31-Oct-20 03:37 1.641556 173.888137 230 33978ft 491kts
31-Oct-20 03:38 1.555842 173.782134 230 33978ft 491kts
31-Oct-20 03:39 1.469941 173.675919 230 33978ft 490kts
31-Oct-20 03:40 1.384414 173.570163 230 33977ft 491kts
31-Oct-20 03:41 1.298783 173.464322 230 33977ft 491kts
31-Oct-20 03:42 1.213059 173.358353 230 33977ft 491kts
31-Oct-20 03:43 1.127461 173.252082 230 33976ft 491kts
31-Oct-20 03:44 1.041606 173.145804 230 33977ft 493kts
31-Oct-20 03:45 0.955289 173.039143 229 33977ft 496kts
31-Oct-20 03:46 0.868261 172.931894 230 33978ft 496kts
31-Oct-20 03:47 0.781296 172.824991 230 33978ft 495kts
31-Oct-20 03:48 0.694771 172.718142 230 33978ft 496kts
31-Oct-20 03:49 0.607957 172.610890 230 33978ft 496kts
31-Oct-20 03:50 0.521402 172.503971 230 33978ft 496kts
31-Oct-20 03:51 0.434906 172.397139 230 33978ft 496kts
31-Oct-20 03:52 0.348281 172.289844 230 33978ft 496kts
31-Oct-20 03:53 0.261768 172.182696 230 33978ft 496kts
31-Oct-20 03:55 0.175150 172.075688 230 33978ft 496kts
31-Oct-20 03:56 0.088311 171.968448 230 33978ft 496kts
31-Oct-20 03:57 0.001793 171.861601 230 33978ft 495kts
31-Oct-20 03:58 -0.084798 171.754667 230 33978ft 495kts
31-Oct-20 03:59 -0.171772 171.647812 230 33978ft 495kts
31-Oct-20 04:00 -0.258267 171.541214 230 33978ft 495kts
31-Oct-20 04:01 -0.344905 171.434239 230 33977ft 496kts
31-Oct-20 04:02 -0.431837 171.326798 230 33978ft 497kts
31-Oct-20 04:03 -0.518287 171.219545 230 33978ft 497kts
31-Oct-20 04:04 -0.605035 171.112335 230 33978ft 497kts
31-Oct-20 04:05 -0.691879 171.005075 230 33978ft 496kts
31-Oct-20 04:06 -0.778424 170.898181 231 33978ft 496kts
31-Oct-20 04:07 -0.865181 170.790993 231 33978ft 496kts
31-Oct-20 04:08 -0.951868 170.683902 231 33978ft 496kts
31-Oct-20 04:09 -1.039005 170.576371 231 33975ft 501kts
31-Oct-20 04:10 -1.126108 170.468591 229 33978ft 500kts
31-Oct-20 04:11 -1.213827 170.360985 229 33978ft 499kts
31-Oct-20 04:12 -1.300923 170.253066 229 33978ft 499kts
31-Oct-20 04:12 -1.373910 170.163041 229 33978ft 500kts
31-Oct-20 04:14 -1.457238 170.027447 265 33981ft 504kts
31-Oct-20 04:14 -1.414093 169.924242 322 33978ft 496kts
31-Oct-20 04:15 -1.286359 169.906268 26 33977ft 487kts
31-Oct-20 04:17 -1.214660 170.032723 97 33977ft 477kts
31-Oct-20 04:17 -1.270268 170.125986 129 33982ft 483kts
31-Oct-20 04:18 -1.297260 170.249833 70 33983ft 478kts
31-Oct-20 04:19 -1.219266 170.357555 52 33979ft 482kts
31-Oct-20 04:20 -1.134812 170.461253 52 33978ft 482kts
31-Oct-20 04:21 -1.050754 170.565185 50 33976ft 485kts
31-Oct-20 04:22 -0.964169 170.671759 50 33977ft 499kts
31-Oct-20 04:23 -0.877229 170.779382 50 33978ft 499kts
31-Oct-20 04:24 -0.789743 170.886851 50 33978ft 499kts
31-Oct-20 04:25 -0.702320 170.994578 51 33978ft 499kts
31-Oct-20 04:26 -0.615116 171.102140 51 33978ft 498kts
31-Oct-20 04:27 -0.528098 171.209501 51 33978ft 497kts
31-Oct-20 04:28 -0.441118 171.316791 51 33978ft 497kts
31-Oct-20 04:29 -0.354368 171.423789 51 33978ft 497kts
31-Oct-20 04:30 -0.267436 171.531006 51 33978ft 497kts
31-Oct-20 04:31 -0.180239 171.638537 51 33978ft 497kts
31-Oct-20 04:32 -0.093681 171.745755 51 33978ft 497kts
31-Oct-20 04:33 -0.006679 171.853220 51 33978ft 497kts
31-Oct-20 04:34 0.080155 171.960320 51 33978ft 497kts
31-Oct-20 04:35 0.167404 172.067389 51 33978ft 497kts
31-Oct-20 04:36 0.254401 172.174413 51 33978ft 497kts
31-Oct-20 04:37 0.341347 172.281610 51 33978ft 497kts
31-Oct-20 04:38 0.428534 172.389148 51 33978ft 497kts
31-Oct-20 04:39 0.515398 172.496277 51 33978ft 497kts
31-Oct-20 04:40 0.602368 172.603552 51 33978ft 497kts
31-Oct-20 04:41 0.689081 172.710820 51 33978ft 497kts
31-Oct-20 04:42 0.776058 172.818419 51 33978ft 497kts
31-Oct-20 04:43 0.862934 172.925570 51 33978ft 496kts
31-Oct-20 04:44 0.949588 173.032484 52 33978ft 494kts
31-Oct-20 04:45 1.035972 173.139153 52 33977ft 498kts
31-Oct-20 04:46 1.123390 173.246933 51 33977ft 493kts
31-Oct-20 04:47 1.209654 173.352732 51 33978ft 490kts
31-Oct-20 04:48 1.295245 173.458270 51 33977ft 490kts
31-Oct-20 04:49 1.380883 173.563978 51 33978ft 490kts
31-Oct-20 04:50 1.466738 173.670045 52 33977ft 490kts
31-Oct-20 04:51 1.552185 173.776031 52 33978ft 490kts
31-Oct-20 04:52 1.637757 173.881795 51 33976ft 490kts
31-Oct-20 04:53 1.723262 173.987415 51 33978ft 490kts
31-Oct-20 04:54 1.808956 174.093276 51 33978ft 490kts
31-Oct-20 04:55 1.894564 174.199052 52 33977ft 490kts
31-Oct-20 04:56 1.980391 174.305122 51 33977ft 490kts
31-Oct-20 04:57 2.066018 174.410950 51 33978ft 490kts
31-Oct-20 04:58 2.151730 174.516499 51 33978ft 490kts
31-Oct-20 04:59 2.237574 174.622284 51 33976ft 490kts
31-Oct-20 05:00 2.323076 174.728386 52 33978ft 490kts
31-Oct-20 05:01 2.408710 174.834521 52 33978ft 490kts
31-Oct-20 05:02 2.494288 174.940421 52 33978ft 490kts
31-Oct-20 05:03 2.579951 175.046423 52 33977ft 491kts
31-Oct-20 05:04 2.665587 175.152422 52 33977ft 492kts
31-Oct-20 05:05 2.751609 175.258928 52 33978ft 492kts
31-Oct-20 05:06 2.837626 175.365463 52 33978ft 492kts
31-Oct-20 05:07 2.923746 175.472152 52 33977ft 492kts
31-Oct-20 05:08 3.009459 175.578383 51 33978ft 491kts
31-Oct-20 05:09 3.095224 175.684805 52 33978ft 491kts
31-Oct-20 05:10 3.181121 175.791086 51 33978ft 491kts
31-Oct-20 05:11 3.266710 175.897108 51 33978ft 491kts
31-Oct-20 05:12 3.352462 176.003465 51 33978ft 491kts
31-Oct-20 05:13 3.438174 176.109819 51 33978ft 491kts
31-Oct-20 05:14 3.523666 176.215933 51 33978ft 491kts
31-Oct-20 05:15 3.609357 176.322336 51 33978ft 491kts
31-Oct-20 05:16 3.694927 176.428634 51 33977ft 491kts
31-Oct-20 05:17 3.780522 176.534981 51 33957ft 491kts
31-Oct-20 05:18 3.866341 176.641653 51 33952ft 491kts
31-Oct-20 05:19 3.951681 176.748225 52 33951ft 491kts
31-Oct-20 05:20 4.036982 176.854473 52 33951ft 491kts
31-Oct-20 05:21 4.122753 176.961067 51 33950ft 493kts
31-Oct-20 05:22 4.209320 177.068245 52 33951ft 497kts
31-Oct-20 05:23 4.296333 177.176530 52 33951ft 499kts
31-Oct-20 05:24 4.383208 177.284745 52 33951ft 499kts
31-Oct-20 05:25 4.470163 177.393122 52 33951ft 499kts
31-Oct-20 05:26 4.557144 177.501565 52 33951ft 499kts
31-Oct-20 05:27 4.644005 177.609920 52 33951ft 499kts
31-Oct-20 05:28 4.730689 177.718426 52 33951ft 500kts
31-Oct-20 05:29 4.817448 177.827002 52 33951ft 499kts
31-Oct-20 05:30 4.904303 177.935513 52 33951ft 499kts
31-Oct-20 05:31 4.991286 178.044218 52 33951ft 499kts
31-Oct-20 05:32 5.077736 178.152335 51 33952ft 496kts
31-Oct-20 05:33 5.163958 178.259638 51 33952ft 494kts
31-Oct-20 05:34 5.250026 178.367041 51 33951ft 494kts
31-Oct-20 05:35 5.335919 178.474547 51 33951ft 494kts
31-Oct-20 05:36 5.421738 178.582045 51 33951ft 494kts
31-Oct-20 05:37 5.506522 178.688469 51 33951ft 494kts
31-Oct-20 05:38 5.593175 178.797527 51 33951ft 494kts
31-Oct-20 05:39 5.679226 178.905526 51 33951ft 497kts
31-Oct-20 05:40 5.765697 179.014068 51 33951ft 500kts
31-Oct-20 05:41 5.852595 179.123215 51 33951ft 501kts
31-Oct-20 05:42 5.939280 179.232149 51 33951ft 501kts
31-Oct-20 05:43 6.026194 179.341426 51 33951ft 501kts
31-Oct-20 05:44 6.113167 179.450789 51 33951ft 501kts
31-Oct-20 05:45 6.200501 179.560055 51 33951ft 501kts
31-Oct-20 05:46 6.287107 179.669077 52 33951ft 501kts
31-Oct-20 05:47 6.373763 179.778782 52 33951ft 501kts
31-Oct-20 05:48 6.460562 179.888308 51 33951ft 501kts
31-Oct-20 05:49 6.547342 179.997806 51 33951ft 501kts
31-Oct-20 05:50 6.632973 -179.894100 51 33992ft 494kts
31-Oct-20 05:51 6.718400 -179.786215 51 34003ft 494kts
31-Oct-20 05:52 6.804022 -179.677986 51 34004ft 494kts
31-Oct-20 05:53 6.889455 -179.569919 51 34004ft 494kts
31-Oct-20 05:54 6.974953 -179.461512 51 34004ft 496kts
31-Oct-20 05:56 7.060732 -179.352451 51 34004ft 498kts
31-Oct-20 05:57 7.147041 -179.243413 51 34004ft 498kts
31-Oct-20 05:58 7.233494 -179.134161 51 34004ft 498kts
31-Oct-20 05:59 7.319559 -179.024980 51 34004ft 498kts
31-Oct-20 06:00 7.405460 -178.915888 51 34018ft 498kts
31-Oct-20 06:01 7.491624 -178.806387 51 34128ft 498kts
31-Oct-20 06:02 7.577716 -178.696902 51 34247ft 497kts
31-Oct-20 06:03 7.663442 -178.587804 51 34275ft 497kts
31-Oct-20 06:04 7.749024 -178.478713 51 34278ft 496kts
31-Oct-20 06:05 7.834508 -178.369298 51 34278ft 496kts
31-Oct-20 06:06 7.920107 -178.260044 51 34278ft 496kts
31-Oct-20 06:07 8.005744 -178.150725 51 34278ft 496kts
31-Oct-20 06:08 8.091250 -178.041500 51 34278ft 496kts
31-Oct-20 06:09 8.177115 -177.932330 51 34278ft 496kts
31-Oct-20 06:10 8.262830 -177.822865 51 34278ft 496kts
31-Oct-20 06:11 8.348274 -177.713481 51 34278ft 496kts
31-Oct-20 06:12 8.433687 -177.604037 51 34278ft 496kts
31-Oct-20 06:13 8.518702 -177.495011 51 34278ft 496kts
31-Oct-20 06:14 8.626037 -177.407968 18 34987ft 501kts
31-Oct-20 06:14 8.740357 -177.399468 346 36057ft 501kts
31-Oct-20 06:16 8.922847 -177.612504 268 36275ft 485kts
31-Oct-20 06:16 8.825804 -177.808948 227 36285ft 483kts
31-Oct-20 06:17 8.651668 -178.015690 231 36280ft 483kts
31-Oct-20 06:18 8.482339 -178.226727 231 36280ft 483kts
31-Oct-20 06:19 8.312786 -178.437169 231 36280ft 483kts
31-Oct-20 06:20 8.143526 -178.646955 231 36280ft 483kts
31-Oct-20 06:21 7.974425 -178.856902 230 36280ft 483kts
31-Oct-20 06:22 7.808112 -179.061786 230 36280ft 483kts
31-Oct-20 06:23 7.633906 -179.276553 230 36280ft 483kts
31-Oct-20 06:24 7.464628 -179.485172 230 36272ft 482kts
31-Oct-20 06:25 7.294696 -179.694979 230 36104ft 483kts
31-Oct-20 06:26 7.124721 -179.903874 230 36021ft 484kts
31-Oct-20 06:27 6.953944 179.886462 230 35987ft 482kts
31-Oct-20 06:28 6.784025 179.678958 230 35960ft 481kts
31-Oct-20 06:29 6.613644 179.470497 230 35954ft 482kts
31-Oct-20 06:30 6.444014 179.262648 230 35953ft 482kts
31-Oct-20 06:31 6.274295 179.055041 229 35953ft 482kts
31-Oct-20 06:32 6.103568 178.846772 230 35952ft 486kts
31-Oct-20 06:33 5.930454 178.635782 230 35953ft 489kts
31-Oct-20 06:34 5.757650 178.426233 230 35953ft 489kts
31-Oct-20 06:35 5.584851 178.215490 230 35953ft 489kts
31-Oct-20 06:36 5.412146 178.005591 229 35953ft 489kts
31-Oct-20 06:37 5.238992 177.795442 229 35953ft 489kts
31-Oct-20 06:38 5.066249 177.585961 229 35953ft 488kts
31-Oct-20 06:39 4.894218 177.377525 229 35954ft 483kts
31-Oct-20 06:40 4.722870 177.170371 229 35953ft 483kts
31-Oct-20 06:41 4.551282 176.962862 229 35952ft 488kts
31-Oct-20 06:42 4.376579 176.751762 229 35953ft 492kts
31-Oct-20 06:43 4.202699 176.541837 229 35953ft 492kts
31-Oct-20 06:44 4.027481 176.330417 229 35954ft 492kts
31-Oct-20 06:45 3.853435 176.120175 229 35953ft 492kts
31-Oct-20 06:46 3.678208 175.909705 229 35953ft 492kts
31-Oct-20 06:47 3.503025 175.698793 229 35953ft 492kts
31-Oct-20 06:48 3.328211 175.488471 229 35953ft 492kts
31-Oct-20 06:49 3.153289 175.277854 229 35953ft 492kts
31-Oct-20 06:50 2.978478 175.067439 229 35953ft 493kts
31-Oct-20 06:51 2.802839 174.857090 229 35953ft 493kts
31-Oct-20 06:52 2.627614 174.646973 229 35952ft 493kts
31-Oct-20 06:53 2.451239 174.435328 229 35954ft 493kts
31-Oct-20 06:54 2.134632 174.054959 229 35949ft 493kts
31-Oct-20 06:55 1.782533 173.633816 229 35953ft 493kts
31-Oct-20 06:56 1.432093 173.213859 229 35923ft 493kts
31-Oct-20 06:57 1.080822 172.793638 229 35909ft 493kts
31-Oct-20 06:58 0.724670 172.368200 229 35926ft 500kts
31-Oct-20 06:59 0.368974 171.942002 229 35905ft 501kts
31-Oct-20 07:00 0.011265 171.514328 229 35912ft 501kts
31-Oct-20 07:01 -0.341631 171.092526 229 35935ft 500kts
31-Oct-20 07:02 -0.700895 170.662855 230 35916ft 499kts
31-Oct-20 07:03 -1.058259 170.235051 230 35896ft 507kts
31-Oct-20 07:04 -1.424920 169.796930 228 35886ft 515kts
31-Oct-20 07:05 -1.791171 169.358176 228 35884ft 515kts
31-Oct-20 07:06 -2.157813 168.918350 228 35887ft 514kts
31-Oct-20 07:07 -2.524898 168.478786 228 35877ft 514kts
31-Oct-20 07:08 -2.889277 168.040641 228 35888ft 514kts
31-Oct-20 07:09 -3.256029 167.600885 228 35884ft 516kts
31-Oct-20 07:10 -3.622579 167.159107 228 35883ft 516kts
31-Oct-20 07:11 -3.988292 166.718611 228 35887ft 503kts
31-Oct-20 07:12 -4.343346 166.290909 229 35890ft 497kts
31-Oct-20 07:13 -4.695732 165.864370 229 35888ft 497kts
31-Oct-20 07:14 -5.048897 165.436773 229 35908ft 498kts
31-Oct-20 07:15 -5.409620 164.999287 229 35884ft 514kts
31-Oct-20 07:16 -5.773035 164.557545 229 35886ft 512kts
31-Oct-20 07:17 -6.135807 164.114927 229 35899ft 512kts
31-Oct-20 07:18 -6.498945 163.672295 229 35898ft 512kts
31-Oct-20 07:19 -6.860275 163.229570 229 35881ft 512kts
31-Oct-20 07:20 -7.219340 162.789284 230 35899ft 505kts
31-Oct-20 07:21 -7.575488 162.351044 230 35879ft 506kts
31-Oct-20 07:22 -7.931896 161.910443 230 35899ft 506kts
31-Oct-20 07:23 -8.289189 161.469004 230 35891ft 506kts
31-Oct-20 07:24 -8.644479 161.026852 230 35891ft 506kts
31-Oct-20 07:25 -8.994597 160.590838 230 35892ft 497kts
31-Oct-20 07:26 -9.343970 160.154769 231 35884ft 501kts
31-Oct-20 07:27 -9.832630 159.913231 196 35900ft 504kts
31-Oct-20 07:28 -10.260482 159.757487 198 35908ft 504kts
31-Oct-20 07:29 -10.392815 159.711728 199 35924ft 504kts
31-Oct-20 07:30 -10.525279 159.665063 199 35924ft 504kts
31-Oct-20 07:31 -10.657283 159.618394 199 35924ft 504kts
31-Oct-20 07:32 -10.789408 159.571627 199 35924ft 504kts
31-Oct-20 07:33 -10.921718 159.524749 199 35924ft 504kts
31-Oct-20 07:34 -11.054482 159.477671 199 35924ft 506kts
31-Oct-20 07:35 -11.187329 159.430623 199 35924ft 506kts
31-Oct-20 07:36 -11.320077 159.383549 199 35924ft 506kts
31-Oct-20 07:37 -11.453272 159.336051 200 35924ft 506kts
31-Oct-20 07:38 -11.585774 159.288401 200 35924ft 506kts
31-Oct-20 07:39 -11.718358 159.241078 199 35924ft 506kts
31-Oct-20 07:40 -11.851564 159.193548 199 35924ft 506kts
31-Oct-20 07:41 -11.984260 159.146155 199 35924ft 506kts
31-Oct-20 07:42 -12.116771 159.098799 199 35924ft 506kts
31-Oct-20 07:43 -12.249979 159.051319 200 35924ft 506kts
31-Oct-20 07:44 -12.382492 159.003877 200 35924ft 505kts
31-Oct-20 07:45 -12.514815 158.956418 200 35924ft 504kts
31-Oct-20 07:46 -12.646941 158.908976 200 35924ft 504kts
31-Oct-20 07:47 -12.778919 158.861534 200 35924ft 503kts
31-Oct-20 07:48 -12.911353 158.813869 200 35924ft 503kts
31-Oct-20 07:49 -13.043514 158.766307 200 35923ft 507kts
31-Oct-20 07:50 -13.177727 158.718008 201 35923ft 514kts
31-Oct-20 07:51 -13.312360 158.669490 201 35923ft 514kts
31-Oct-20 07:52 -13.446685 158.620919 201 35924ft 514kts
31-Oct-20 07:53 -13.581313 158.572196 201 35923ft 514kts
31-Oct-20 07:55 -13.715862 158.523425 201 35923ft 514kts
31-Oct-20 07:56 -13.850632 158.474528 201 35924ft 514kts
31-Oct-20 07:57 -13.984938 158.425736 201 35925ft 514kts
31-Oct-20 07:58 -14.119550 158.376789 201 35921ft 514kts
31-Oct-20 07:59 -14.254293 158.327696 201 35924ft 513kts
31-Oct-20 08:00 -14.388645 158.278360 201 35923ft 514kts
31-Oct-20 08:01 -14.522739 158.229354 201 35925ft 514kts
31-Oct-20 08:02 -14.657700 158.180011 201 35923ft 514kts
31-Oct-20 08:03 -14.792153 158.130779 201 35923ft 514kts
31-Oct-20 08:04 -14.926747 158.081473 201 35925ft 513kts
31-Oct-20 08:05 -15.059890 158.032667 202 35923ft 503kts
31-Oct-20 08:06 -15.191570 157.984361 202 35924ft 503kts
31-Oct-20 08:07 -15.323147 157.936024 202 35923ft 503kts
31-Oct-20 08:08 -15.454852 157.887496 202 35923ft 503kts
31-Oct-20 08:09 -15.586391 157.838959 202 35922ft 503kts
31-Oct-20 08:09 -15.696162 157.798394 202 35923ft 503kts
31-Oct-20 08:11 -15.849747 157.741581 202 35922ft 503kts
31-Oct-20 08:11 -15.959163 157.701032 202 35923ft 503kts
31-Oct-20 08:13 -16.112536 157.644138 202 35921ft 503kts
31-Oct-20 08:13 -16.222149 157.603613 202 35924ft 503kts
31-Oct-20 08:15 -16.375619 157.546580 202 35923ft 503kts
31-Oct-20 08:15 -16.485572 157.505618 202 35924ft 502kts
31-Oct-20 08:16 -16.616792 157.456654 202 35922ft 502kts
31-Oct-20 08:17 -16.748470 157.407453 202 35924ft 503kts
31-Oct-20 08:18 -16.879432 157.358457 202 35925ft 502kts
31-Oct-20 08:19 -17.010763 157.308861 203 35924ft 502kts
31-Oct-20 08:20 -17.141507 157.259825 205 35924ft 499kts
31-Oct-20 08:21 -17.271767 157.210872 205 35922ft 498kts
31-Oct-20 08:22 -17.401716 157.161936 205 35925ft 497kts
31-Oct-20 08:23 -17.531568 157.112979 206 35934ft 498kts
31-Oct-20 08:24 -17.662045 157.063702 206 35946ft 497kts
31-Oct-20 08:25 -17.792110 157.014515 206 35967ft 498kts
31-Oct-20 08:26 -17.921852 156.965382 206 35972ft 498kts
31-Oct-20 08:27 -18.051958 156.916002 206 35976ft 498kts
31-Oct-20 08:28 -18.182040 156.866736 206 35975ft 497kts
31-Oct-20 08:29 -18.312202 156.817334 206 35976ft 498kts
31-Oct-20 08:30 -18.442307 156.767748 206 35976ft 498kts
31-Oct-20 08:31 -18.572193 156.718167 206 35978ft 499kts
31-Oct-20 08:32 -18.701826 156.668595 206 35975ft 497kts
31-Oct-20 08:33 -18.831960 156.618738 206 35973ft 497kts
31-Oct-20 08:34 -18.961196 156.569233 207 35977ft 495kts
31-Oct-20 08:35 -19.090443 156.519596 208 35977ft 491kts
31-Oct-20 08:36 -19.218864 156.470291 208 35977ft 491kts
31-Oct-20 08:37 -19.345228 156.421629 208 35977ft 491kts
31-Oct-20 08:38 -19.474847 156.371565 208 35977ft 491kts
31-Oct-20 08:39 -19.602761 156.321784 209 35978ft 490kts
31-Oct-20 08:40 -19.719436 156.276280 209 35977ft 491kts
31-Oct-20 08:41 -19.847455 156.226537 209 35977ft 491kts
31-Oct-20 08:42 -19.975511 156.176734 209 35977ft 491kts
31-Oct-20 08:43 -20.102431 156.127293 209 35977ft 491kts
31-Oct-20 08:44 -20.230617 156.077554 209 35977ft 491kts
31-Oct-20 08:45 -20.358619 156.027590 209 35977ft 491kts
31-Oct-20 08:46 -20.486151 155.977656 209 35977ft 491kts
31-Oct-20 08:47 -20.614504 155.927302 209 35977ft 491kts
31-Oct-20 08:48 -20.742364 155.877054 209 35977ft 491kts
31-Oct-20 08:49 -20.870447 155.826628 209 35977ft 491kts
31-Oct-20 08:50 -20.998451 155.776170 209 35977ft 490kts
31-Oct-20 08:51 -21.125077 155.726317 210 35977ft 482kts
31-Oct-20 08:52 -21.250405 155.676861 211 35977ft 481kts
31-Oct-20 08:53 -21.376165 155.626993 211 35977ft 481kts
31-Oct-20 08:54 -21.501707 155.577112 211 35977ft 481kts
31-Oct-20 08:55 -21.626613 155.527389 211 35977ft 481kts
31-Oct-20 08:56 -21.752456 155.477206 211 35977ft 481kts
31-Oct-20 08:57 -21.877759 155.427139 211 35977ft 481kts
31-Oct-20 08:58 -22.002878 155.377051 211 35977ft 481kts
31-Oct-20 08:59 -22.128450 155.326524 211 35977ft 481kts
31-Oct-20 09:00 -22.253483 155.276245 211 35977ft 481kts
31-Oct-20 09:01 -22.378562 155.225898 211 35977ft 481kts
31-Oct-20 09:02 -22.503562 155.175482 211 35977ft 481kts
31-Oct-20 09:03 -22.628932 155.124817 211 35977ft 481kts
31-Oct-20 09:04 -22.754221 155.074088 211 35977ft 481kts
31-Oct-20 09:05 -22.879400 155.023302 211 35977ft 480kts
31-Oct-20 09:06 -23.003511 154.973028 212 35978ft 470kts
31-Oct-20 09:07 -23.124374 154.923778 213 35976ft 465kts
31-Oct-20 09:08 -23.245447 154.874569 213 35977ft 466kts
31-Oct-20 09:09 -23.366735 154.825020 213 35977ft 466kts
31-Oct-20 09:10 -23.488265 154.775234 213 35977ft 467kts
31-Oct-20 09:11 -23.609453 154.725495 213 35977ft 467kts
31-Oct-20 09:12 -23.731030 154.675502 213 35977ft 467kts
31-Oct-20 09:13 -23.852420 154.625483 213 35977ft 467kts
31-Oct-20 09:14 -23.973484 154.575505 213 35977ft 467kts
31-Oct-20 09:15 -24.095061 154.525218 213 35977ft 467kts
31-Oct-20 09:16 -24.216547 154.475187 213 35977ft 467kts
31-Oct-20 09:17 -24.337786 154.424937 213 35977ft 467kts
31-Oct-20 09:18 -24.459248 154.374459 213 35977ft 467kts
31-Oct-20 09:19 -24.580614 154.323826 213 35978ft 466kts
31-Oct-20 09:20 -24.703318 154.275767 208 35977ft 476kts
31-Oct-20 09:21 -24.835907 154.248575 200 35977ft 491kts
31-Oct-20 09:22 -24.971182 154.228784 200 35977ft 491kts
31-Oct-20 09:23 -25.106569 154.208511 197 35976ft 491kts
31-Oct-20 09:24 -25.241598 154.188702 197 35977ft 492kts
31-Oct-20 09:25 -25.377396 154.168522 197 35977ft 492kts
31-Oct-20 09:26 -25.512718 154.148271 197 35977ft 491kts
31-Oct-20 09:27 -25.647951 154.127984 197 35977ft 491kts
31-Oct-20 09:28 -25.783173 154.107653 197 35977ft 492kts
31-Oct-20 09:29 -25.918536 154.087263 197 35977ft 492kts
31-Oct-20 09:30 -26.053992 154.066818 197 35977ft 491kts
31-Oct-20 09:31 -26.188757 154.046543 197 35977ft 491kts
31-Oct-20 09:32 -26.324303 154.026068 197 35977ft 492kts
31-Oct-20 09:33 -26.452901 154.006563 197 35346ft 487kts
31-Oct-20 09:34 -26.586981 153.986135 197 32498ft 492kts
31-Oct-20 09:35 -26.724071 153.965224 196 29236ft 504kts
31-Oct-20 09:36 -26.861209 153.944655 195 27174ft 493kts
31-Oct-20 09:37 -26.958119 153.864928 249 25102ft 430kts
31-Oct-20 09:38 -27.008492 153.744281 249 23050ft 424kts
31-Oct-20 09:39 -27.072223 153.635858 215 20986ft 442kts
31-Oct-20 09:40 -27.192534 153.606577 195 18944ft 427kts
31-Oct-20 09:41 -27.303320 153.580763 206 16900ft 388kts
31-Oct-20 09:42 -27.402166 153.526803 211 12447ft 414kts
31-Oct-20 09:43 -27.500293 153.472125 209 9324ft 397kts
31-Oct-20 09:44 -27.560866 153.391385 252 8512ft 308kts
31-Oct-20 09:45 -27.594399 153.305977 252 7056ft 291kts
31-Oct-20 09:46 -27.616947 153.223218 256 5973ft 269kts
31-Oct-20 09:47 -27.646545 153.145285 249 4819ft 269kts
31-Oct-20 09:48 -27.672969 153.067218 267 3734ft 263kts
31-Oct-20 09:49 -27.652423 152.998487 332 3008ft 230kts
31-Oct-20 09:51 -27.593302 153.009626 26 2894ft 217kts
31-Oct-20 09:52 -27.541851 153.039643 25 1996ft 219kts
31-Oct-20 09:53 -27.490557 153.068906 26 1504ft 177kts
31-Oct-20 09:54 -27.447962 153.093225 26 1500ft 165kts
31-Oct-20 09:55 -27.409822 153.114203 28 323ft 151kts
31-Oct-20 09:56 -27.383962 153.129019 27 22ft 54kts
31-Oct-20 09:57 -27.372681 153.133371 306 19ft 38kts
31-Oct-20 09:58 -27.375415 153.130270 211 20ft 22kts
31-Oct-20 09:59 -27.384278 153.125173 206 27ft 43kts
31-Oct-20 10:00 -27.386448 153.122346 306 32ft 0kts
31-Oct-20 10:01 -27.386448 153.122346 306 32ft 0kts

Navigation Log

Ident Type
Flight plan parsing failed, navigation log unavailable